createdAt,value
2023-02-01T00:00:11.082Z,0.91
2023-02-01T00:03:14.080Z,0.89
2023-02-01T00:06:15.832Z,0.89
2023-02-01T00:09:17.469Z,0.89
2023-02-01T00:12:19.064Z,0.90
2023-02-01T00:15:21.757Z,0.91
2023-02-01T00:18:23.419Z,0.91
2023-02-01T00:21:25.565Z,0.98
2023-02-01T00:24:27.342Z,1.04
2023-02-01T00:27:29.206Z,1.12
2023-02-01T00:30:30.961Z,1.20
2023-02-01T00:33:33.845Z,1.28
2023-02-01T00:36:36.018Z,1.32
2023-02-01T00:39:37.726Z,1.31
2023-02-01T00:42:39.384Z,1.20
2023-02-01T00:45:41.606Z,1.11
2023-02-01T00:48:43.757Z,1.09
2023-02-01T00:51:45.458Z,1.07
2023-02-01T00:54:47.299Z,1.05
2023-02-01T00:57:48.913Z,0.99
2023-02-01T01:01:01.991Z,0.95
2023-02-01T01:04:04.597Z,0.89
2023-02-01T01:07:06.329Z,0.83
2023-02-01T01:10:08.707Z,0.82
2023-02-01T01:13:10.430Z,0.81
2023-02-01T01:16:13.449Z,0.77
2023-02-01T01:19:15.508Z,0.72
2023-02-01T01:22:17.193Z,0.70
2023-02-01T01:25:19.051Z,0.69
2023-02-01T01:28:20.915Z,0.69
2023-02-01T01:31:22.807Z,0.68
2023-02-01T01:34:24.510Z,0.67
2023-02-01T01:37:26.184Z,0.67
2023-02-01T01:40:29.596Z,0.64
2023-02-01T01:43:56.758Z,0.57
2023-02-01T01:47:00.176Z,0.48
2023-02-01T01:50:04.593Z,0.35
2023-02-01T01:53:08.905Z,0.28
2023-02-01T01:56:11.250Z,0.23
2023-02-01T01:59:13.964Z,0.21
2023-02-01T02:02:16.734Z,0.18
2023-02-01T02:05:19.125Z,0.12
2023-02-01T02:08:21.810Z,0.08
2023-02-01T02:11:23.583Z,0.07
2023-02-01T02:14:26.151Z,0.09
2023-02-01T02:17:52.490Z,0.13
2023-02-01T02:21:12.887Z,0.16
2023-02-01T02:24:23.492Z,0.19
2023-02-01T02:27:31.159Z,0.20
2023-02-01T02:30:42.477Z,0.15
2023-02-01T02:33:57.119Z,0.08
2023-02-01T02:37:16.496Z,0.00
2023-02-01T02:40:23.117Z,-0.08
2023-02-01T02:44:03.532Z,-0.10
2023-02-01T02:47:28.663Z,-0.10
2023-02-01T02:51:04.395Z,-0.10
2023-02-01T02:54:35.655Z,-0.05
2023-02-01T02:57:58.641Z,-0.03
2023-02-01T03:01:19.347Z,-0.03
2023-02-01T03:04:22.206Z,-0.03
2023-02-01T03:07:46.742Z,-0.05
2023-02-01T03:10:53.270Z,-0.07
2023-02-01T03:13:58.499Z,-0.08
2023-02-01T03:17:07.753Z,-0.08
2023-02-01T03:20:11.921Z,-0.06
2023-02-01T03:23:16.499Z,-0.08
2023-02-01T03:26:20.053Z,-0.07
2023-02-01T03:29:48.188Z,-0.07
2023-02-01T03:33:01.384Z,-0.05
2023-02-01T03:36:25.602Z,-0.03
2023-02-01T03:39:40.062Z,-0.03
2023-02-01T03:42:45.307Z,-0.10
2023-02-01T03:45:51.391Z,-0.19
2023-02-01T03:48:54.051Z,-0.27
2023-02-01T03:51:58.735Z,-0.29
2023-02-01T03:55:01.010Z,-0.30
2023-02-01T03:58:07.912Z,-0.31
2023-02-01T04:01:09.857Z,-0.31
2023-02-01T04:04:20.943Z,-0.31
2023-02-01T04:07:25.277Z,-0.30
2023-02-01T04:10:27.757Z,-0.28
2023-02-01T04:13:29.445Z,-0.28
2023-02-01T04:16:34.419Z,-0.29
2023-02-01T04:19:36.195Z,-0.33
2023-02-01T04:22:38.167Z,-0.41
2023-02-01T04:25:39.826Z,-0.54
2023-02-01T04:28:41.473Z,-0.66
2023-02-01T04:31:43.245Z,-0.76
2023-02-01T04:34:45.056Z,-0.85
2023-02-01T04:37:46.925Z,-0.84
2023-02-01T04:40:49.703Z,-0.80
2023-02-01T04:43:53.208Z,-0.73
2023-02-01T04:46:54.852Z,-0.69
2023-02-01T04:49:56.631Z,-0.65
2023-02-01T04:52:58.302Z,-0.64
2023-02-01T04:55:59.954Z,-0.65
2023-02-01T04:59:03.485Z,-0.67
2023-02-01T05:02:05.161Z,-0.68
2023-02-01T05:05:07.192Z,-0.68
2023-02-01T05:08:08.948Z,-0.69
2023-02-01T05:11:33.444Z,-0.70
2023-02-01T05:14:35.065Z,-0.73
2023-02-01T05:17:36.756Z,-0.76
2023-02-01T05:20:38.425Z,-0.75
2023-02-01T05:23:58.573Z,-0.73
2023-02-01T05:27:00.249Z,-0.75
2023-02-01T05:30:03.275Z,-0.77
2023-02-01T05:33:05.224Z,-0.79
2023-02-01T05:36:07.091Z,-0.84
2023-02-01T05:39:08.714Z,-0.87
2023-02-01T05:42:10.713Z,-0.89
2023-02-01T05:45:12.631Z,-0.90
2023-02-01T05:48:14.452Z,-0.90
2023-02-01T05:51:16.244Z,-0.88
2023-02-01T05:54:17.909Z,-0.88
2023-02-01T05:57:19.586Z,-0.86
2023-02-01T06:00:22.470Z,-0.80
2023-02-01T06:03:24.232Z,-0.77
2023-02-01T06:06:25.915Z,-0.76
2023-02-01T06:09:29.436Z,-0.74
2023-02-01T06:12:31.406Z,-0.81
2023-02-01T06:15:34.577Z,-0.88
2023-02-01T06:18:36.593Z,-0.91
2023-02-01T06:21:38.347Z,-0.97
2023-02-01T06:24:40.700Z,-1.08
2023-02-01T06:27:42.368Z,-1.13
2023-02-01T06:30:47.150Z,-1.14
2023-02-01T06:33:50.005Z,-1.15
2023-02-01T06:36:51.870Z,-1.12
2023-02-01T06:39:53.513Z,-1.12
2023-02-01T06:42:55.276Z,-1.10
2023-02-01T06:46:02.342Z,-1.10
2023-02-01T06:49:03.915Z,-1.12
2023-02-01T06:52:05.783Z,-1.19
2023-02-01T06:55:08.067Z,-1.21
2023-02-01T06:58:09.817Z,-1.22
2023-02-01T07:01:12.391Z,-1.26
2023-02-01T07:04:14.125Z,-1.31
2023-02-01T07:07:16.430Z,-1.32
2023-02-01T07:10:18.300Z,-1.31
2023-02-01T07:13:20.262Z,-1.31
2023-02-01T07:16:22.269Z,-1.27
2023-02-01T07:19:24.095Z,-1.22
2023-02-01T07:22:25.854Z,-1.16
2023-02-01T07:25:27.513Z,-1.14
2023-02-01T07:28:30.781Z,-1.11
2023-02-01T07:31:32.429Z,-1.05
2023-02-01T07:34:35.013Z,-0.98
2023-02-01T07:37:36.825Z,-0.89
2023-02-01T07:40:38.583Z,-0.81
2023-02-01T07:43:40.269Z,-0.75
2023-02-01T07:46:41.901Z,-0.70
2023-02-01T07:49:43.553Z,-0.60
2023-02-01T07:52:45.219Z,-0.48
2023-02-01T07:55:47.100Z,-0.36
2023-02-01T07:58:50.418Z,-0.24
2023-02-01T08:01:52.157Z,-0.11
2023-02-01T08:04:54.489Z,0.04
2023-02-01T08:07:56.189Z,0.16
2023-02-01T08:11:00.116Z,0.28
2023-02-01T08:14:01.845Z,0.38
2023-02-01T08:17:03.484Z,0.46
2023-02-01T08:20:05.812Z,0.54
2023-02-01T08:23:09.937Z,0.66
2023-02-01T08:26:13.602Z,0.83
2023-02-01T08:29:15.357Z,0.97
2023-02-01T08:32:17.030Z,1.12
2023-02-01T08:35:18.692Z,1.28
2023-02-01T08:38:20.376Z,1.45
2023-02-01T08:41:24.575Z,1.59
2023-02-01T08:44:26.238Z,1.71
2023-02-01T08:47:27.927Z,1.84
2023-02-01T08:50:29.634Z,1.95
2023-02-01T08:53:31.554Z,2.04
2023-02-01T08:56:33.302Z,2.14
2023-02-01T08:59:34.962Z,2.24
2023-02-01T09:02:37.008Z,2.36
2023-02-01T09:05:49.029Z,2.50
2023-02-01T09:08:51.416Z,2.66
2023-02-01T09:11:53.075Z,2.82
2023-02-01T09:14:55.376Z,3.00
2023-02-01T09:17:57.049Z,3.17
2023-02-01T09:20:58.799Z,3.34
2023-02-01T09:24:00.575Z,3.49
2023-02-01T09:27:02.265Z,3.61
2023-02-01T09:30:05.875Z,3.73
2023-02-01T09:36:26.746Z,3.95
2023-02-01T09:39:31.086Z,4.06
2023-02-01T09:42:51.669Z,4.19
2023-02-01T09:46:14.741Z,4.33
2023-02-01T09:49:21.063Z,4.48
2023-02-01T09:52:29.499Z,4.59
2023-02-01T09:55:36.589Z,4.71
2023-02-01T09:58:42.476Z,4.85
2023-02-01T10:01:44.246Z,4.99
2023-02-01T10:04:46.187Z,5.12
2023-02-01T10:07:59.303Z,5.24
2023-02-01T10:11:49.457Z,5.38
2023-02-01T10:15:15.654Z,5.59
2023-02-01T10:18:36.431Z,5.77
2023-02-01T10:22:01.925Z,5.94
2023-02-01T10:25:24.935Z,6.09
2023-02-01T10:28:27.120Z,6.25
2023-02-01T10:31:34.785Z,6.37
2023-02-01T10:34:37.707Z,6.53
2023-02-01T10:37:42.320Z,6.66
2023-02-01T10:40:44.069Z,6.74
2023-02-01T10:43:48.659Z,6.81
2023-02-01T10:46:51.316Z,6.89
2023-02-01T10:50:10.312Z,6.98
2023-02-01T10:53:18.747Z,7.07
2023-02-01T10:56:29.075Z,7.18
2023-02-01T10:59:33.586Z,7.30
2023-02-01T11:02:36.588Z,7.39
2023-02-01T11:05:46.857Z,7.53
2023-02-01T11:08:51.196Z,7.65
2023-02-01T11:11:53.008Z,7.76
2023-02-01T11:15:04.576Z,7.92
2023-02-01T11:18:17.909Z,8.06
2023-02-01T11:21:19.603Z,8.17
2023-02-01T11:24:23.921Z,8.25
2023-02-01T11:27:27.805Z,8.30
2023-02-01T11:30:38.465Z,8.33
2023-02-01T11:33:48.998Z,8.38
2023-02-01T11:36:50.714Z,8.44
2023-02-01T11:39:58.002Z,8.53
2023-02-01T11:43:38.408Z,8.71
2023-02-01T11:46:40.072Z,8.91
2023-02-01T11:49:41.782Z,9.08
2023-02-01T11:52:52.413Z,9.20
2023-02-01T11:56:29.749Z,9.35
2023-02-01T11:59:56.387Z,9.51
2023-02-01T12:03:24.783Z,9.60
2023-02-01T12:06:35.592Z,9.74
2023-02-01T12:09:53.032Z,9.84
2023-02-01T12:13:03.744Z,9.98
2023-02-01T12:16:11.334Z,10.04
2023-02-01T12:19:22.573Z,10.09
2023-02-01T12:22:50.705Z,10.20
2023-02-01T12:26:23.324Z,10.33
2023-02-01T12:29:53.004Z,10.31
2023-02-01T12:33:09.772Z,10.25
2023-02-01T12:36:14.924Z,10.31
2023-02-01T12:39:33.746Z,10.30
2023-02-01T12:42:42.438Z,10.30
2023-02-01T12:45:48.147Z,10.29
2023-02-01T12:48:55.845Z,10.31
2023-02-01T12:52:05.474Z,10.34
2023-02-01T12:55:35.529Z,10.40
2023-02-01T12:58:42.502Z,10.46
2023-02-01T13:01:51.962Z,10.45
2023-02-01T13:05:02.818Z,10.48
2023-02-01T13:08:08.899Z,10.53
2023-02-01T13:11:19.200Z,10.62
2023-02-01T13:14:33.168Z,10.72
2023-02-01T13:17:35.015Z,10.77
2023-02-01T13:20:43.463Z,10.83
2023-02-01T13:23:47.937Z,10.91
2023-02-01T13:26:49.812Z,10.99
2023-02-01T13:30:17.040Z,11.05
2023-02-01T13:33:52.608Z,11.11
2023-02-01T13:37:26.999Z,11.15
2023-02-01T13:41:07.025Z,11.16
2023-02-01T13:44:25.760Z,11.24
2023-02-01T13:47:33.288Z,11.37
2023-02-01T13:50:38.651Z,11.42
2023-02-01T13:53:46.953Z,11.48
2023-02-01T13:56:48.647Z,11.54
2023-02-01T13:59:51.917Z,11.59
2023-02-01T14:03:09.830Z,11.62
2023-02-01T14:06:27.380Z,11.61
2023-02-01T14:09:35.250Z,11.60
2023-02-01T14:12:45.965Z,11.59
2023-02-01T14:16:03.026Z,11.55
2023-02-01T14:19:10.391Z,11.49
2023-02-01T14:22:21.148Z,11.47
2023-02-01T14:25:23.219Z,11.42
2023-02-01T14:28:28.895Z,11.37
2023-02-01T14:32:00.811Z,11.31
2023-02-01T14:35:04.067Z,11.30
2023-02-01T14:38:08.052Z,11.33
2023-02-01T14:41:23.569Z,11.37
2023-02-01T14:44:31.415Z,11.39
2023-02-01T14:47:34.239Z,11.39
2023-02-01T14:50:41.579Z,11.41
2023-02-01T14:53:44.604Z,11.42
2023-02-01T14:56:47.041Z,11.38
2023-02-01T14:59:50.385Z,11.29
2023-02-01T15:02:53.983Z,11.20
2023-02-01T15:05:58.013Z,11.13
2023-02-01T15:09:10.431Z,11.06
2023-02-01T15:12:12.045Z,11.01
2023-02-01T15:15:13.725Z,10.99
2023-02-01T15:18:19.716Z,10.99
2023-02-01T15:21:29.807Z,10.99
2023-02-01T15:24:32.914Z,10.97
2023-02-01T15:27:34.716Z,10.98
2023-02-01T15:30:37.179Z,10.98
2023-02-01T15:33:38.887Z,10.97
2023-02-01T15:36:45.764Z,10.95
2023-02-01T15:40:10.393Z,10.93
2023-02-01T15:43:13.196Z,10.90
2023-02-01T15:46:18.082Z,10.85
2023-02-01T15:49:20.905Z,10.79
2023-02-01T15:52:28.903Z,10.71
2023-02-01T15:55:43.027Z,10.63
2023-02-01T15:58:51.686Z,10.54
2023-02-01T16:01:53.418Z,10.42
2023-02-01T16:04:55.592Z,10.29
2023-02-01T16:08:05.035Z,10.16
2023-02-01T16:11:10.095Z,10.05
2023-02-01T16:14:11.697Z,9.93
2023-02-01T16:17:13.349Z,9.82
2023-02-01T16:20:15.123Z,9.70
2023-02-01T16:23:16.843Z,9.52
2023-02-01T16:26:19.564Z,9.32
2023-02-01T16:29:22.739Z,9.11
2023-02-01T16:32:24.711Z,8.92
2023-02-01T16:35:28.773Z,8.73
2023-02-01T16:38:30.581Z,8.54
2023-02-01T16:41:32.304Z,8.38
2023-02-01T16:44:33.985Z,8.22
2023-02-01T16:47:38.698Z,8.08
2023-02-01T16:50:40.378Z,7.93
2023-02-01T16:53:53.846Z,7.81
2023-02-01T16:56:56.532Z,7.68
2023-02-01T16:59:59.416Z,7.54
2023-02-01T17:03:01.068Z,7.38
2023-02-01T17:06:02.970Z,7.24
2023-02-01T17:09:05.230Z,7.09
2023-02-01T17:12:07.164Z,6.95
2023-02-01T17:15:11.198Z,6.81
2023-02-01T17:18:16.447Z,6.66
2023-02-01T17:21:18.077Z,6.51
2023-02-01T17:24:25.909Z,6.39
2023-02-01T17:27:30.353Z,6.25
2023-02-01T17:30:32.396Z,6.14
2023-02-01T17:33:38.018Z,6.04
2023-02-01T17:36:42.655Z,5.96
2023-02-01T17:39:56.338Z,5.86
2023-02-01T17:42:58.121Z,5.76
2023-02-01T17:46:04.286Z,5.68
2023-02-01T17:49:06.014Z,5.61
2023-02-01T17:52:11.126Z,5.55
2023-02-01T17:55:22.755Z,5.47
2023-02-01T17:58:24.909Z,5.39
2023-02-01T18:01:27.374Z,5.29
2023-02-01T18:04:29.114Z,5.19
2023-02-01T18:07:30.815Z,5.12
2023-02-01T18:10:32.472Z,5.04
2023-02-01T18:13:34.147Z,4.97
2023-02-01T18:16:37.247Z,4.93
2023-02-01T18:19:39.424Z,4.90
2023-02-01T18:22:41.029Z,4.87
2023-02-01T18:25:42.703Z,4.84
2023-02-01T18:28:45.018Z,4.82
2023-02-01T18:31:49.604Z,4.79
2023-02-01T18:34:51.391Z,4.74
2023-02-01T18:37:54.726Z,4.69
2023-02-01T18:40:58.316Z,4.58
2023-02-01T18:43:59.972Z,4.44
2023-02-01T18:47:01.656Z,4.31
2023-02-01T18:50:03.507Z,4.19
2023-02-01T18:53:08.483Z,4.10
2023-02-01T18:56:13.198Z,4.08
2023-02-01T18:59:17.399Z,4.08
2023-02-01T19:02:19.575Z,4.08
2023-02-01T19:05:22.324Z,4.07
2023-02-01T19:08:25.906Z,4.07
2023-02-01T19:11:27.672Z,4.01
2023-02-01T19:14:29.479Z,3.88
2023-02-01T19:17:31.271Z,3.76
2023-02-01T19:20:33.574Z,3.67
2023-02-01T19:23:35.390Z,3.56
2023-02-01T19:26:37.143Z,3.47
2023-02-01T19:29:40.899Z,3.35
2023-02-01T19:32:42.687Z,3.26
2023-02-01T19:35:44.339Z,3.21
2023-02-01T19:38:46.648Z,3.18
2023-02-01T19:41:48.401Z,3.19
2023-02-01T19:44:50.150Z,3.23
2023-02-01T19:47:51.804Z,3.24
2023-02-01T19:50:55.569Z,3.21
2023-02-01T19:53:57.624Z,3.18
2023-02-01T19:56:59.388Z,3.11
2023-02-01T20:00:01.077Z,3.03
2023-02-01T20:03:05.022Z,2.93
2023-02-01T20:06:07.617Z,2.87
2023-02-01T20:09:09.345Z,2.82
2023-02-01T20:12:11.922Z,2.74
2023-02-01T20:15:13.626Z,2.67
2023-02-01T20:18:15.316Z,2.65
2023-02-01T20:21:18.492Z,2.66
2023-02-01T20:24:20.304Z,2.65
2023-02-01T20:27:23.039Z,2.64
2023-02-01T20:30:24.929Z,2.67
2023-02-01T20:33:27.651Z,2.73
2023-02-01T20:36:30.641Z,2.79
2023-02-01T20:39:32.305Z,2.83
2023-02-01T20:42:34.669Z,2.85
2023-02-01T20:45:40.592Z,2.85
2023-02-01T20:48:44.050Z,2.78
2023-02-01T20:51:45.749Z,2.71
2023-02-01T20:54:47.670Z,2.67
2023-02-01T20:57:49.406Z,2.64
2023-02-01T21:00:51.305Z,2.62
2023-02-01T21:03:53.002Z,2.61
2023-02-01T21:06:55.885Z,2.55
2023-02-01T21:09:57.630Z,2.47
2023-02-01T21:13:05.022Z,2.39
2023-02-01T21:16:08.688Z,2.31
2023-02-01T21:19:10.312Z,2.24
2023-02-01T21:22:13.503Z,2.18
2023-02-01T21:25:15.654Z,2.11
2023-02-01T21:28:17.471Z,2.03
2023-02-01T21:31:22.294Z,1.97
2023-02-01T21:34:24.612Z,1.90
2023-02-01T21:37:27.093Z,1.84
2023-02-01T21:40:28.772Z,1.80
2023-02-01T21:43:30.498Z,1.79
2023-02-01T21:46:32.727Z,1.81
2023-02-01T21:49:35.001Z,1.83
2023-02-01T21:52:39.093Z,1.79
2023-02-01T21:55:41.323Z,1.73
2023-02-01T21:58:43.168Z,1.65
2023-02-01T22:01:45.259Z,1.59
2023-02-01T22:04:49.133Z,1.55
2023-02-01T22:07:50.882Z,1.54
2023-02-01T22:10:53.116Z,1.53
2023-02-01T22:13:55.275Z,1.55
2023-02-01T22:16:57.177Z,1.56
2023-02-01T22:19:58.915Z,1.57
2023-02-01T22:23:00.607Z,1.57
2023-02-01T22:26:06.729Z,1.57
2023-02-01T22:29:09.514Z,1.48
2023-02-01T22:32:13.280Z,1.36
2023-02-01T22:35:15.036Z,1.25
2023-02-01T22:38:17.288Z,1.14
2023-02-01T22:41:19.949Z,1.05
2023-02-01T22:44:21.724Z,0.98
2023-02-01T22:47:23.446Z,0.91
2023-02-01T22:50:25.074Z,0.87
2023-02-01T22:53:27.744Z,0.84
2023-02-01T22:56:36.775Z,0.84
2023-02-01T22:59:38.471Z,0.85
2023-02-01T23:02:43.625Z,0.91
2023-02-01T23:05:45.302Z,0.94
2023-02-01T23:08:46.979Z,0.94
2023-02-01T23:11:49.129Z,0.92
2023-02-01T23:15:06.349Z,0.92
2023-02-01T23:18:07.990Z,0.91
2023-02-01T23:21:12.689Z,0.93
2023-02-01T23:24:14.378Z,0.91
2023-02-01T23:27:16.060Z,0.90
2023-02-01T23:30:17.813Z,0.91
2023-02-01T23:33:23.056Z,0.89
2023-02-01T23:36:26.053Z,0.84
2023-02-01T23:39:27.836Z,0.73
2023-02-01T23:42:29.447Z,0.66
2023-02-01T23:45:31.089Z,0.55
2023-02-01T23:48:32.848Z,0.43
2023-02-01T23:51:34.708Z,0.38
2023-02-01T23:54:36.342Z,0.35
2023-02-01T23:57:38.152Z,0.31
